Borrego (687) Station Data

Red Flag Warning: No
Fire Weather Zone: 262
SDGE Region: North East
Lat/Lon: 33.263/-116.348

Observations

Time Wind Speed/Gust Temp(F) RH Fuel Moist Fuel Temp(F) Dewpt(F) Tmax(F) Tmin(F) Accum Precip 10-min Precip SL Press(mb)
4/29 11:50pm 323 4 G 6 66° 16% - - 19° 85° 62.5° 0.0" 0.0" 1019.0
4/29 11:40pm 325 4 G 6 67° 15% - - 18° 85° 64.9° 0.0" 0.0" 1019.0
4/29 11:30pm 359 3 G 5 67° 15% - - 18° 85° 64.9° 0.0" 0.0" 1019.0
4/29 11:20pm 354 2 G 2 67° 15% - - 18° 85° 64.9° 0.0" 0.0" 1019.0
4/29 11:10pm 49 2 G 3 68° 14% - - 17° 85° 67.3° 0.0" 0.0" 1019.0
4/29 11:00pm 24 2 G 3 69° 14% - - 18° 85° 67.3° 0.0" 0.0" 1019.0
4/29 10:50pm 316 1 G 3 69° 14% - - 19° 85° 67.4° 0.0" 0.0" 1018.0
4/29 10:40pm 328 3 G 4 69° 14% - - 19° 85° 67.4° 0.0" 0.0" 1018.0
4/29 10:30pm 324 4 G 6 70° 13% - - 16° 85° 67.4° 0.0" 0.0" 1018.0
4/29 10:20pm 301 3 G 5 72° 12% - - 17° 85° 67.4° 0.0" 0.0" 1018.0
4/29 10:10pm 289 3 G 5 74° 12% - - 18° 85° 67.4° 0.0" 0.0" 1018.0
4/29 10:00pm 261 4 G 7 75° 12% - - 18° 85° 67.4° 0.0" 0.0" 1018.0
4/29 9:50pm 299 5 G 8 75° 11% - - 18° 85° 67.4° 0.0" 0.0" 1018.0
4/29 9:40pm 263 5 G 8 74° 12% - - 18° 85° 67.4° 0.0" 0.0" 1018.0
4/29 9:30pm 229 5 G 6 75° 11% - - 17° 85° 67.4° 0.0" 0.0" 1018.0
4/29 9:20pm 224 6 G 8 76° 10% - - 16° 85° 67.4° 0.0" 0.0" 1018.0
4/29 9:10pm 213 7 G 9 77° 10% - - 15° 85° 67.4° 0.0" 0.0" 1017.0
4/29 9:00pm 231 8 G 12 77° 9% - - 13° 85° 67.4° 0.0" 0.0" 1017.0
4/29 8:50pm 229 6 G 9 77° 8% - - 12° 85° 67.4° 0.0" 0.0" 1017.0
4/29 8:40pm 231 8 G 12 77° 8% - - 11° 85° 67.4° 0.0" 0.0" 1017.0
4/29 8:30pm 235 8 G 13 76° 8% - - 10° 85° 67.4° 0.0" 0.0" 1017.0
4/29 8:20pm 233 7 G 9 75° 8% - - 11° 85° 67.4° 0.0" 0.0" 1016.0
4/29 8:10pm 213 6 G 7 76° 8% - - 11° 85° 67.4° 0.0" 0.0" 1016.0
4/29 8:00pm 220 6 G 9 77° 8% - - 11° 85° 67.4° 0.0" 0.0" 1016.0
4/29 7:50pm 214 8 G 10 79° 7% - - 11° 85° 67.4° 0.0" 0.0" 1016.0
4/29 7:40pm 186 7 G 10 79° 7% - - 10° 85° 67.4° 0.0" 0.0" 1016.0
4/29 7:30pm 122 2 G 7 80° 7% - - 10° 85° 67.4° 0.0" 0.0" 1015.0
4/29 7:20pm 110 2 G 4 81° 7% - - 10° 85° 67.4° 0.0" 0.0" 1015.0
4/29 7:10pm 95 6 G 10 82° 6% - - 10° 85° 67.4° 0.0" 0.0" 1015.0
4/29 7:00pm 91 4 G 13 82° 6% - - 10° 85° 67.4° 0.0" 0.0" 1015.0
4/29 6:50pm 104 5 G 13 83° 6% - - 10° 85° 67.4° 0.0" 0.0" 1015.0
4/29 6:40pm 74 7 G 16 83° 6% - - 85° 67.4° 0.0" 0.0" 1015.0
4/29 6:30pm 55 8 G 17 83° 6% - - 10° 85° 67.4° 0.0" 0.0" 1015.0
4/29 6:20pm 15 4 G 10 84° 6% - - 85° 67.4° 0.0" 0.0" 1015.0
4/29 6:10pm 63 5 G 12 84° 6% - - 85° 67.4° 0.0" 0.0" 1015.0
4/29 6:00pm 79 5 G 10 83° 6% - - 85° 67.4° 0.0" 0.0" 1015.0
4/29 5:50pm 78 7 G 11 84° 6% - - 85° 67.4° 0.0" 0.0" 1015.0
4/29 5:40pm 71 8 G 14 84° 6% - - 85° 67.4° 0.0" 0.0" 1015.0
4/29 5:30pm 73 5 G 15 84° 6% - - 85° 67.4° 0.0" 0.0" 1015.0
4/29 5:20pm 164 6 G 15 84° 6% - - 10° 85° 67.4° 0.0" 0.0" 1015.0
4/29 5:10pm 134 7 G 17 84° 6% - - 11° 85° 67.4° 0.0" 0.0" 1015.0
4/29 5:00pm 161 8 G 14 83° 7% - - 11° 84.7° 67.4° 0.0" 0.0" 1015.0
4/29 4:50pm 185 7 G 14 83° 7% - - 12° 84.7° 67.4° 0.0" 0.0" 1015.0
4/29 4:40pm 185 6 G 10 83° 7% - - 12° 84.7° 67.4° 0.0" 0.0" 1016.0
4/29 4:30pm 194 7 G 12 84° 7% - - 12° 84.7° 67.4° 0.0" 0.0" 1016.0
4/29 4:20pm 169 9 G 14 84° 7% - - 12° 84.7° 67.4° 0.0" 0.0" 1016.0
4/29 4:10pm 182 6 G 14 83° 7% - - 12° 84.4° 67.4° 0.0" 0.0" 1016.0
4/29 4:00pm 203 10 G 16 83° 7% - - 12° 84.4° 67.4° 0.0" 0.0" 1016.0
4/29 3:50pm 182 8 G 15 83° 7% - - 13° 84.4° 67.4° 0.0" 0.0" 1016.0
4/29 3:40pm 138 9 G 16 83° 7% - - 12° 84.4° 67.4° 0.0" 0.0" 1016.0
4/29 3:30pm 142 6 G 11 83° 7% - - 11° 84.4° 67.4° 0.0" 0.0" 1016.0
4/29 3:20pm 93 9 G 14 83° 7% - - 11° 84.4° 67.4° 0.0" 0.0" 1016.0
4/29 3:10pm 142 6 G 13 83° 7% - - 12° 84.4° 67.4° 0.0" 0.0" 1016.0
4/29 3:00pm 195 6 G 12 83° 7% - - 11° 84.4° 67.4° 0.0" 0.0" 1016.0
4/29 2:50pm 150 4 G 9 82° 6% - - 10° 84.4° 67.4° 0.0" 0.0" 1017.0
4/29 2:40pm 150 4 G 13 84° 6% - - 10° 84.4° 67.4° 0.0" 0.0" 1017.0
4/29 2:30pm 248 2 G 9 82° 6% - - 84.1° 67.4° 0.0" 0.0" 1017.0
4/29 2:20pm 30 4 G 8 82° 6% - - 10° 83.4° 67.4° 0.0" 0.0" 1017.0
4/29 2:10pm 310 4 G 8 81° 6% - - 82.7° 67.4° 0.0" 0.0" 1017.0
4/29 2:00pm 105 3 G 10 81° 6% - - 82.6° 67.4° 0.0" 0.0" 1017.0
4/29 1:50pm 15 2 G 5 81° 6% - - 82.6° 67.4° 0.0" 0.0" 1017.0
4/29 1:40pm 312 5 G 10 80° 7% - - 10° 82.6° 67.4° 0.0" 0.0" 1017.0
4/29 1:30pm 293 7 G 12 80° 7% - - 10° 82.6° 67.4° 0.0" 0.0" 1017.0
4/29 1:20pm 355 6 G 9 81° 7% - - 11° 82.6° 67.4° 0.0" 0.0" 1017.0
4/29 1:10pm 12 5 G 14 81° 7% - - 11° 81.5° 67.4° 0.0" 0.0" 1017.0
4/29 1:00pm 32 4 G 12 81° 7% - - 81.4° 67.4° 0.0" 0.0" 1017.0
4/29 12:50pm 104 3 G 12 79° 7% - - 80.9° 67.4° 0.0" 0.0" 1017.0
4/29 12:40pm 222 4 G 9 80° 7% - - 80.9° 67.4° 0.0" 0.0" 1017.0
4/29 12:30pm 268 5 G 9 79° 7% - - 80.4° 67.4° 0.0" 0.0" 1017.0
4/29 12:20pm 155 6 G 11 78° 7% - - 79.5° 67.4° 0.0" 0.0" 1017.0
4/29 12:10pm 2 3 G 10 78° 7% - - 79.5° 67.4° 0.0" 0.0" 1018.0
4/29 12:00pm 16 4 G 9 78° 7% - - 79.4° 67.4° 0.0" 0.0" 1018.0
4/29 11:50am 201 2 G 6 78° 7% - - 79.4° 67.4° 0.0" 0.0" 1018.0
4/29 11:40am 120 5 G 12 77° 7% - - 78.4° 67.4° 0.0" 0.0" 1018.0
4/29 11:30am 193 7 G 11 77° 7% - - 77.7° 67.4° 0.0" 0.0" 1018.0
4/29 11:20am 250 4 G 12 77° 7% - - 77.7° 67.4° 0.0" 0.0" 1018.0
4/29 11:10am 236 4 G 10 76° 7% - - 76.7° 67.4° 0.0" 0.0" 1018.0
4/29 11:00am 170 3 G 9 76° 7% - - 76.6° 67.4° 0.0" 0.0" 1018.0
4/29 10:50am 93 3 G 8 76° 7% - - 76.5° 67.4° 0.0" 0.0" 1018.0
4/29 10:40am 301 3 G 6 75° 7% - - 75.8° 67.4° 0.0" 0.0" 1018.0
4/29 10:30am 274 4 G 8 74° 7% - - 75.7° 67.4° 0.0" 0.0" 1018.0
4/29 10:20am 214 4 G 7 74° 7% - - 75.7° 67.4° 0.0" 0.0" 1018.0
4/29 10:10am 163 5 G 9 75° 7% - - 75.7° 67.4° 0.0" 0.0" 1018.0
4/29 10:00am 139 2 G 8 75° 7% - - 75.7° 67.4° 0.0" 0.0" 1018.0
4/29 9:50am 168 3 G 7 74° 7% - - 75.2° 67.4° 0.0" 0.0" 1018.0
4/29 9:40am 217 5 G 9 73° 8% - - 75.2° 67.4° 0.0" 0.0" 1018.0
4/29 9:30am 178 6 G 12 73° 8% - - 75.2° 67.4° 0.0" 0.0" 1018.0
4/29 9:20am 189 5 G 9 73° 8% - - 75.2° 67.4° 0.0" 0.0" 1018.0
4/29 9:10am 189 5 G 11 73° 8% - - 75.2° 67.4° 0.0" 0.0" 1018.0
4/29 9:00am 186 4 G 8 73° 8% - - 75.2° 67.4° 0.0" 0.0" 1018.0
4/29 8:50am 169 6 G 11 73° 8% - - 75.2° 67.4° 0.0" 0.0" 1018.0
4/29 8:40am 106 3 G 6 73° 8% - - 75.2° 67.4° 0.0" 0.0" 1018.0
4/29 8:30am 99 1 G 4 73° 8% - - 75.2° 67.4° 0.0" 0.0" 1018.0
4/29 8:20am 74 2 G 6 72° 8% - - 75.2° 67.4° 0.0" 0.0" 1018.0
4/29 8:10am 80 5 G 8 71° 9% - - 75.2° 67.4° 0.0" 0.0" 1017.0
4/29 8:00am 50 7 G 12 71° 9% - - 10° 75.2° 67.4° 0.0" 0.0" 1017.0
4/29 7:50am 348 6 G 12 71° 9% - - 10° 75.2° 67.4° 0.0" 0.0" 1017.0
4/29 7:40am 5 7 G 12 70° 11% - - 13° 75.2° 67.4° 0.0" 0.0" 1017.0
4/29 7:30am 351 9 G 15 69° 11% - - 13° 75.2° 67.4° 0.0" 0.0" 1017.0
4/29 7:20am 352 10 G 15 69° 11% - - 12° 75.2° 67.4° 0.0" 0.0" 1017.0
4/29 7:10am 346 9 G 18 69° 10% - - 11° 75.2° 67.4° 0.0" 0.0" 1017.0
4/29 7:00am 332 10 G 17 69° 10% - - 10° 75.2° 67.4° 0.0" 0.0" 1017.0
4/29 6:50am 348 10 G 19 69° 10% - - 10° 75.2° 67.4° 0.0" 0.0" 1017.0
4/29 6:40am 8 12 G 19 69° 10% - - 75.2° 67.4° 0.0" 0.0" 1017.0
4/29 6:30am 30 14 G 25 68° 9% - - 75.2° 67.4° 0.0" 0.0" 1016.0
4/29 6:20am 66 7 G 15 68° 10% - - 75.2° 67.4° 0.0" 0.0" 1016.0
4/29 6:10am 62 6 G 14 68° 10% - - 75.2° 67.4° 0.0" 0.0" 1016.0
4/29 6:00am 23 10 G 17 68° 10% - - 75.2° 67.4° 0.0" 0.0" 1016.0
4/29 5:50am 21 12 G 20 68° 10% - - 75.2° 67.4° 0.0" 0.0" 1016.0
4/29 5:40am 22 8 G 18 68° 10% - - 75.2° 67.4° 0.0" 0.0" 1016.0
4/29 5:30am 47 4 G 12 68° 10% - - 75.2° 67.4° 0.0" 0.0" 1016.0
4/29 5:20am 28 5 G 8 68° 10% - - 75.2° 67.8° 0.0" 0.0" 1016.0
4/29 5:10am 5 7 G 14 69° 10% - - 75.2° 68.4° 0.0" 0.0" 1016.0
4/29 5:00am 357 8 G 18 69° 10% - - 75.2° 68.6° 0.0" 0.0" 1015.0
4/29 4:50am 357 12 G 25 69° 9% - - 75.2° 68.9° 0.0" 0.0" 1015.0
4/29 4:40am 4 14 G 26 70° 9% - - 75.2° 68.9° 0.0" 0.0" 1015.0
4/29 4:30am 2 14 G 25 70° 9% - - 75.2° 68.9° 0.0" 0.0" 1015.0
4/29 4:20am 4 13 G 23 69° 9% - - 75.2° 68.9° 0.0" 0.0" 1015.0
4/29 4:10am 4 13 G 21 70° 9% - - 75.2° 69.3° 0.0" 0.0" 1015.0
4/29 4:00am 2 13 G 23 70° 9% - - 75.2° 69.4° 0.0" 0.0" 1015.0
4/29 3:50am 6 13 G 23 70° 9% - - 75.2° 69.4° 0.0" 0.0" 1015.0
4/29 3:40am 3 16 G 29 70° 9% - - 75.2° 69.8° 0.0" 0.0" 1014.0
4/29 3:30am 5 14 G 22 70° 9% - - 75.2° 69.8° 0.0" 0.0" 1014.0
4/29 3:20am 9 14 G 23 71° 9% - - 75.2° 70.2° 0.0" 0.0" 1014.0
4/29 3:10am 3 11 G 20 71° 9% - - 75.2° 70.3° 0.0" 0.0" 1014.0
4/29 3:00am 12 14 G 24 71° 9% - - 10° 75.2° 70.4° 0.0" 0.0" 1014.0
4/29 2:50am 2 12 G 19 71° 9% - - 10° 75.2° 70.4° 0.0" 0.0" 1014.0
4/29 2:40am 2 13 G 19 71° 9% - - 10° 75.2° 70.8° 0.0" 0.0" 1014.0
4/29 2:30am 358 13 G 21 72° 9% - - 10° 75.2° 71.2° 0.0" 0.0" 1014.0
4/29 2:20am 3 13 G 20 72° 9% - - 10° 75.2° 71.2° 0.0" 0.0" 1013.0
4/29 2:10am 2 17 G 31 72° 9% - - 10° 75.2° 71.4° 0.0" 0.0" 1013.0
4/29 2:00am 5 17 G 27 72° 9% - - 11° 75.2° 71.5° 0.0" 0.0" 1013.0
4/29 1:50am 1 16 G 29 72° 9% - - 11° 75.2° 71.9° 0.0" 0.0" 1013.0
4/29 1:40am 4 15 G 22 73° 9% - - 11° 75.2° 72.1° 0.0" 0.0" 1013.0
4/29 1:30am 5 15 G 25 73° 9% - - 11° 75.2° 72.1° 0.0" 0.0" 1013.0
4/29 1:20am 1 15 G 22 73° 9% - - 11° 75.2° 72.5° 0.0" 0.0" 1013.0
4/29 1:10am 4 15 G 24 73° 9% - - 11° 75.2° 72.6° 0.0" 0.0" 1013.0
4/29 1:00am 8 13 G 26 73° 9% - - 10° 75.2° 72.6° 0.0" 0.0" 1013.0
4/29 12:50am 352 9 G 17 73° 9% - - 10° 75.2° 72.8° 0.0" 0.0" 1013.0
4/29 12:40am 4 14 G 27 74° 8% - - 10° 75.2° 73.4° 0.0" 0.0" 1012.0
4/29 12:30am 360 14 G 21 74° 8% - - 10° 75.2° 73.6° 0.0" 0.0" 1012.0
4/29 12:20am 1 12 G 22 74° 8% - - 75.2° 73.9° 0.0" 0.0" 1012.0
4/29 12:10am 1 13 G 21 75° 8% - - 75.2° 74.2° 0.0" 0.0" 1012.0
4/29 12:00am 359 13 G 21 75° 7% - - 86.8° 70.1° 0.0" 0.0" 1012.0
4/28 11:50pm 8 14 G 23 75° 7% - - 86.8° 70.1° 0.0" 0.0" 1011.0
4/28 11:40pm 12 15 G 23 75° 7% - - 86.8° 70.1° 0.0" 0.0" 1011.0
4/28 11:30pm 3 10 G 17 75° 7% - - 86.8° 70.1° 0.0" 0.0" 1011.0
4/28 11:20pm 2 10 G 16 75° 7% - - 86.8° 70.1° 0.0" 0.0" 1011.0
4/28 11:10pm 4 11 G 19 75° 7% - - 86.8° 70.1° 0.0" 0.0" 1011.0
4/28 11:00pm 3 10 G 18 75° 8% - - 10° 86.8° 70.1° 0.0" 0.0" 1011.0
4/28 10:50pm 350 6 G 10 75° 10% - - 14° 86.8° 70.1° 0.0" 0.0" 1011.0
4/28 10:40pm 356 6 G 10 74° 10% - - 14° 86.8° 70.1° 0.0" 0.0" 1011.0
4/28 10:30pm 206 6 G 8 76° 9% - - 13° 86.8° 70.1° 0.0" 0.0" 1011.0
4/28 10:20pm 222 5 G 7 76° 10% - - 14° 86.8° 70.1° 0.0" 0.0" 1011.0
4/28 10:10pm 233 2 G 5 75° 10% - - 15° 86.8° 70.1° 0.0" 0.0" 1011.0
4/28 10:00pm 194 1 G 5 74° 11% - - 16° 86.8° 70.1° 0.0" 0.0" 1010.0
4/28 9:50pm 205 3 G 7 75° 11% - - 17° 86.8° 70.1° 0.0" 0.0" 1010.0
4/28 9:40pm 196 6 G 8 75° 11% - - 17° 86.8° 70.1° 0.0" 0.0" 1010.0
4/28 9:30pm 212 3 G 8 75° 11% - - 17° 86.8° 70.1° 0.0" 0.0" 1010.0
4/28 9:20pm 207 4 G 7 76° 10% - - 16° 86.8° 70.1° 0.0" 0.0" 1010.0
4/28 9:10pm 199 9 G 13 76° 10% - - 16° 86.8° 70.1° 0.0" 0.0" 1009.0
4/28 9:00pm 191 5 G 8 77° 10% - - 16° 86.8° 70.1° 0.0" 0.0" 1009.0
4/28 8:50pm 176 7 G 11 77° 11% - - 17° 86.8° 70.1° 0.0" 0.0" 1009.0
4/28 8:40pm 167 7 G 12 77° 11% - - 18° 86.8° 70.1° 0.0" 0.0" 1009.0
4/28 8:30pm 154 10 G 16 78° 11% - - 19° 86.8° 70.1° 0.0" 0.0" 1008.0
4/28 8:20pm 152 14 G 19 78° 11% - - 19° 86.8° 70.1° 0.0" 0.0" 1008.0
4/28 8:10pm 149 14 G 20 79° 13% - - 24° 86.8° 70.1° 0.0" 0.0" 1008.0
4/28 8:00pm 125 11 G 18 79° 12% - - 22° 86.8° 70.1° 0.0" 0.0" 1008.0
4/28 7:50pm 119 6 G 12 79° 16% - - 28° 86.8° 70.1° 0.0" 0.0" 1007.0
4/28 7:40pm 153 4 G 8 79° 24% - - 40° 86.8° 70.1° 0.0" 0.0" 1007.0
4/28 7:30pm 271 7 G 13 80° 24% - - 40° 86.8° 70.1° 0.0" 0.0" 1007.0
4/28 7:20pm 274 9 G 13 80° 24% - - 40° 86.8° 70.1° 0.0" 0.0" 1007.0
4/28 7:10pm 278 10 G 14 81° 24% - - 40° 86.8° 70.1° 0.0" 0.0" 1006.0
4/28 7:00pm 261 4 G 10 82° 22% - - 39° 86.8° 70.1° 0.0" 0.0" 1006.0
4/28 6:50pm 232 8 G 17 82° 22% - - 39° 86.8° 70.1° 0.0" 0.0" 1006.0
4/28 6:40pm 180 9 G 16 83° 21% - - 39° 86.8° 70.1° 0.0" 0.0" 1006.0
4/28 6:30pm 137 10 G 14 84° 14% - - 30° 86.8° 70.1° 0.0" 0.0" 1006.0
4/28 6:20pm 141 12 G 20 84° 13% - - 27° 86.8° 70.1° 0.0" 0.0" 1006.0
4/28 6:10pm 147 12 G 18 84° 12% - - 25° 86.8° 70.1° 0.0" 0.0" 1006.0
4/28 6:00pm 139 12 G 18 84° 11% - - 24° 86.8° 70.1° 0.0" 0.0" 1006.0